Create Tblcommutelog Verified Points Advance Search
| # | Trip ID | Id Commuter | Trip Date | Trip Num | Current Lat | Current Lng | Delta Distance | Current Time | Activity | Activity Confidence | Current Speed | |
|---|---|---|---|---|---|---|---|---|---|---|---|---|
| 72661 | 260209_770910_16638064_1627 | 770910 | (not set) | (not set) | 38.839543910462 | -77.047512996845 | 5.5023 | 2026-02-09 17:33:11 | in_vehicle | 100 | 10.398133164054 | |
| 72662 | 260209_785997_16654252_1558 | 785997 | (not set) | (not set) | 39.390739007651 | -76.345374068902 | 57.2926 | 2026-02-09 17:33:12 | in_vehicle | 100 | 15.776015449677 | |
| 72663 | 260209_788589_16657249_1646 | 788589 | (not set) | (not set) | 39.1420120782 | -77.200844010428 | 21.3223 | 2026-02-09 17:33:12 | still | 33 | 7.8544797804143 | |
| 72664 | 260209_739501_16604607_1713 | 739501 | (not set) | (not set) | 38.85564791033 | -77.047982416414 | 4.4278 | 2026-02-09 17:33:12 | in_vehicle | 100 | 6.1289082407217 | |
| 72665 | 260209_788559_16657212_1718 | 788559 | (not set) | (not set) | 38.990098612971 | -77.019546344925 | 2.3108 | 2026-02-09 17:33:14 | on_bicycle | 100 | 4.2379321752036 | |
| 72666 | 260209_788397_16657014_1636 | 788397 | (not set) | (not set) | 39.223149283333 | -76.719898 | 27.2363 | 2026-02-09 17:33:14 | in_vehicle | 100 | 13.616815828766 | |
| 72667 | 260209_780813_16648491_1627 | 780813 | (not set) | (not set) | 38.781593709536 | -77.277452242358 | 19.4807 | 2026-02-09 17:33:15 | in_vehicle | 100 | 7.3314438473987 | |
| 72668 | 260209_788537_16657182_1632 | 788537 | (not set) | (not set) | 39.31068601182 | -76.620689649379 | 2.7827 | 2026-02-09 17:33:15 | still | 33 | 2.7627026205441 | |
| 72669 | 260209_789307_16658135_1632 | 789307 | (not set) | (not set) | 39.032536 | -77.1059766 | 15.4368 | 2026-02-09 17:33:15 | in_vehicle | 100 | 6.8307598773324 | |
| 72670 | 260209_790397_16659411_1703 | 790397 | (not set) | (not set) | 38.616305948946 | -77.252890070332 | 19.2773 | 2026-02-09 17:33:13 | in_vehicle | 100 | 9.4995842534891 | |
| 72671 | 260209_790764_16659833_1709 | 790764 | (not set) | (not set) | 39.114732730053 | -77.20257763336 | 10.268 | 2026-02-09 17:33:15 | in_vehicle | 100 | 5.0291916636119 | |
| 72672 | 260209_789883_16659363_1725 | 789883 | (not set) | (not set) | 39.132110570802 | -76.865078238494 | 4.2203 | 2026-02-09 17:33:17 | in_vehicle | 100 | 12.74061888115 | |
| 72673 | 260209_784108_16651963_1615 | 784108 | (not set) | (not set) | 39.411868095943 | -77.40584184017 | 35.9144 | 2026-02-09 17:33:17 | in_vehicle | 100 | 0 | |
| 72674 | 260209_784108_16651963_1615 | 784108 | (not set) | (not set) | 39.411851994112 | -77.4059270667 | 35.9144 | 2026-02-09 17:33:17 | in_vehicle | 100 | -0.44703925898772 | |
| 72675 | 260209_781890_16649582_1708 | 781890 | (not set) | (not set) | 39.088769180036 | -77.513422145797 | 6.1206 | 2026-02-09 17:33:17 | on_bicycle | 100 | 0.20563805913435 | |
| 72676 | 260209_781890_16649582_1708 | 781890 | (not set) | (not set) | 39.088761443547 | -77.51339849695 | 6.1206 | 2026-02-09 17:33:17 | on_bicycle | 100 | 0 | |
| 72677 | 260209_781890_16649582_1708 | 781890 | (not set) | (not set) | 39.088769180036 | -77.513422145797 | 6.1206 | 2026-02-09 17:33:17 | on_bicycle | 100 | 0.20563805913435 | |
| 72678 | 260209_781890_16649582_1708 | 781890 | (not set) | (not set) | 39.088769180036 | -77.513422145797 | 6.1206 | 2026-02-09 17:33:17 | on_bicycle | 100 | 0.20563805913435 | |
| 72679 | 260209_781890_16649582_1708 | 781890 | (not set) | (not set) | 39.088769180036 | -77.513422145797 | 6.1206 | 2026-02-09 17:33:17 | on_bicycle | 100 | 0.20563805913435 | |
| 72680 | 260209_781890_16649582_1708 | 781890 | (not set) | (not set) | 39.088761443547 | -77.51339849695 | 6.1206 | 2026-02-09 17:33:17 | on_bicycle | 100 | 0 |